Time;durP1;ratioP1;P1;durP2;ratioP2;P2;SDS_P1;SDS_P2;PMS_P1;PMS_P2;Temp;Humidity;BMP_temperature;BMP_pressure;BME280_temperature;BME280_humidity;BME280_pressure;Samples;Min_cycle;Max_cycle;Signal;HPM_P1;HPM_P2
2022/08/04 00:00:22;;;;;;;12.75;4.78;;;20.50;99.90;;;;;;5089930;28;20524;-48
2022/08/04 00:03:18;;;;;;;10.75;4.75;;;20.50;99.90;;;;;;5080211;28;20028;-49
2022/08/04 00:06:02;;;;;;;9.65;5.82;;;20.40;99.90;;;;;;5086587;28;20540;-46
2022/08/04 00:08:43;;;;;;;6.07;5.45;;;20.40;99.90;;;;;;5090712;28;20405;-48
2022/08/04 00:11:13;;;;;;;15.63;6.15;;;20.40;99.90;;;;;;5081355;28;20121;-50
2022/08/04 00:13:45;;;;;;;11.95;5.03;;;20.40;99.90;;;;;;5083268;28;20500;-49
2022/08/04 00:16:12;;;;;;;12.60;5.70;;;20.40;99.90;;;;;;5082874;28;20048;-48
2022/08/04 00:18:47;;;;;;;9.52;5.82;;;20.40;99.90;;;;;;5081376;28;20108;-51
2022/08/04 00:21:17;;;;;;;12.63;6.50;;;20.40;99.90;;;;;;5090305;28;20040;-46
2022/08/04 00:23:44;;;;;;;11.00;5.25;;;20.40;99.90;;;;;;5088606;28;20028;-49
2022/08/04 00:26:10;;;;;;;12.98;4.95;;;20.50;99.90;;;;;;5085333;28;20040;-47
2022/08/04 00:28:41;;;;;;;10.82;5.55;;;20.50;99.90;;;;;;5087029;28;20181;-49
2022/08/04 00:31:09;;;;;;;6.55;4.82;;;20.40;99.90;;;;;;5090480;28;20039;-53
2022/08/04 00:33:36;;;;;;;13.60;5.85;;;20.40;99.90;;;;;;5080765;28;20501;-49
2022/08/04 00:36:03;;;;;;;9.32;5.78;;;20.30;99.90;;;;;;5080359;28;20445;-49
2022/08/04 00:38:30;;;;;;;10.65;6.10;;;20.30;99.90;;;;;;5085920;28;20032;-48
2022/08/04 00:41:36;;;;;;;9.48;5.20;;;20.30;99.90;;;;;;5079418;28;20072;-48
2022/08/04 00:44:25;;;;;;;9.32;5.75;;;20.20;99.90;;;;;;5076120;28;20038;-48
2022/08/04 00:47:04;;;;;;;15.15;6.47;;;20.30;99.90;;;;;;5079028;28;20040;-48
2022/08/04 00:49:48;;;;;;;9.40;5.65;;;20.30;99.90;;;;;;5090055;28;20044;-48
2022/08/04 00:52:23;;;;;;;11.93;5.10;;;20.20;99.90;;;;;;5090169;28;20584;-49
2022/08/04 00:54:55;;;;;;;12.77;5.32;;;20.20;99.90;;;;;;5089833;28;20039;-48
2022/08/04 00:57:39;;;;;;;8.10;5.13;;;20.20;99.90;;;;;;5087992;28;20032;-48
2022/08/04 01:00:12;;;;;;;7.88;5.47;;;20.20;99.90;;;;;;5090129;28;20036;-48
2022/08/04 01:02:50;;;;;;;13.60;5.28;;;20.20;99.90;;;;;;5072666;28;20520;-49
2022/08/04 01:05:34;;;;;;;10.13;5.15;;;20.20;99.90;;;;;;5080195;28;20107;-47
2022/08/04 01:08:33;;;;;;;13.80;5.90;;;20.10;99.90;;;;;;5087865;28;20075;-47
2022/08/04 01:11:14;;;;;;;12.30;5.88;;;20.00;99.90;;;;;;5089926;28;20062;-53
2022/08/04 01:13:57;;;;;;;8.32;5.65;;;19.90;99.90;;;;;;5087993;28;20128;-50
2022/08/04 01:16:25;;;;;;;7.35;5.32;;;19.80;99.90;;;;;;5089297;28;20544;-51
2022/08/04 01:19:06;;;;;;;13.63;6.03;;;19.70;99.90;;;;;;5082415;28;20093;-52
2022/08/04 01:22:01;;;;;;;6.03;3.97;;;19.80;99.90;;;;;;5075556;28;20040;-48
2022/08/04 01:24:58;;;;;;;9.07;4.80;;;19.60;99.90;;;;;;5078546;28;20036;-47
2022/08/04 01:27:55;;;;;;;10.20;5.60;;;19.40;99.90;;;;;;5070349;28;20049;-51
2022/08/04 01:30:21;;;;;;;8.73;4.95;;;19.40;99.90;;;;;;5070855;28;20040;-49
2022/08/04 01:32:52;;;;;;;10.13;6.60;;;19.30;99.90;;;;;;5087263;28;20115;-50
2022/08/04 01:35:28;;;;;;;10.73;6.78;;;19.40;99.90;;;;;;5072700;28;20505;-47
2022/08/04 01:38:18;;;;;;;12.45;5.38;;;19.40;99.90;;;;;;5078689;28;20107;-48
2022/08/04 01:40:45;;;;;;;13.65;6.68;;;19.30;99.90;;;;;;5071808;28;20375;-49
2022/08/04 01:43:14;;;;;;;15.43;7.57;;;19.40;99.90;;;;;;5072693;28;20040;-46
2022/08/04 01:45:40;;;;;;;13.52;6.10;;;19.40;99.90;;;;;;5080554;28;20091;-49
2022/08/04 01:48:07;;;;;;;9.55;6.00;;;19.40;99.90;;;;;;5078568;28;20132;-47
2022/08/04 01:50:35;;;;;;;12.57;5.90;;;19.40;99.90;;;;;;5075395;28;20040;-48
2022/08/04 01:53:02;;;;;;;10.30;6.10;;;19.30;99.90;;;;;;5089504;28;20040;-51
2022/08/04 01:55:29;;;;;;;8.30;5.20;;;19.20;99.90;;;;;;5093628;28;20097;-48
2022/08/04 01:57:58;;;;;;;10.25;6.18;;;19.20;99.90;;;;;;5077183;28;20048;-49
2022/08/04 02:00:27;;;;;;;12.18;7.85;;;19.30;99.90;;;;;;5074649;28;20032;-48
2022/08/04 02:02:54;;;;;;;14.52;6.50;;;19.30;99.90;;;;;;5072945;28;20051;-48
2022/08/04 02:05:23;;;;;;;16.30;6.38;;;19.30;99.90;;;;;;5073187;28;20520;-48
2022/08/04 02:08:11;;;;;;;13.52;6.80;;;19.30;99.90;;;;;;5076043;28;20032;-49
2022/08/04 02:10:42;;;;;;;14.75;6.53;;;19.30;99.90;;;;;;5090788;28;20036;-48
2022/08/04 02:13:52;;;;;;;14.77;6.78;;;19.30;99.90;;;;;;5072186;28;20040;-48
2022/08/04 02:16:29;;;;;;;17.30;7.13;;;19.30;99.90;;;;;;5077270;28;20055;-48
2022/08/04 02:19:15;;;;;;;14.30;6.82;;;19.30;99.90;;;;;;5064887;28;20102;-48
2022/08/04 02:21:44;;;;;;;17.70;7.28;;;19.30;99.90;;;;;;5074025;28;20036;-47
2022/08/04 02:24:14;;;;;;;12.93;6.07;;;19.40;99.90;;;;;;5084975;28;20408;-48
2022/08/04 02:26:41;;;;;;;10.57;6.55;;;19.40;99.90;;;;;;5084231;28;20493;-48
2022/08/04 02:29:23;;;;;;;9.23;6.13;;;19.30;99.90;;;;;;5085157;28;20408;-46
2022/08/04 02:32:05;;;;;;;13.68;6.50;;;19.30;99.90;;;;;;5088676;28;20044;-49
2022/08/04 02:34:37;;;;;;;7.00;5.57;;;19.30;99.90;;;;;;5075350;28;20051;-51
2022/08/04 02:37:03;;;;;;;9.85;5.28;;;19.30;99.90;;;;;;5081054;28;20525;-49
2022/08/04 02:39:34;;;;;;;10.50;6.40;;;19.30;99.90;;;;;;5073044;28;20043;-50
2022/08/04 02:42:02;;;;;;;12.73;7.20;;;19.20;99.90;;;;;;5083037;28;20073;-48
2022/08/04 02:44:29;;;;;;;11.25;6.43;;;19.30;99.90;;;;;;5090203;28;20040;-48
2022/08/04 02:46:55;;;;;;;11.82;6.65;;;19.20;99.90;;;;;;5059656;28;20090;-48
2022/08/04 02:49:22;;;;;;;;;;;19.20;99.90;;;;;;5081375;28;20555;-51
2022/08/04 02:51:52;;;;;;;14.13;6.43;;;19.20;99.90;;;;;;5080361;28;20007;-46
2022/08/04 02:54:26;;;;;;;12.38;6.40;;;19.20;99.90;;;;;;5073999;28;20668;-47
2022/08/04 02:56:54;;;;;;;14.68;5.97;;;19.20;99.90;;;;;;5092224;28;20036;-48
2022/08/04 02:59:25;;;;;;;10.95;6.30;;;19.10;99.90;;;;;;5075646;28;20047;-46
2022/08/04 03:01:54;;;;;;;15.93;6.50;;;19.10;99.90;;;;;;5073005;28;20037;-49
2022/08/04 03:04:49;;;;;;;11.48;6.75;;;19.10;99.90;;;;;;5088480;28;20497;-48
2022/08/04 03:07:58;;;;;;;10.95;6.07;;;19.00;99.90;;;;;;5083843;28;20047;-50
2022/08/04 03:10:59;;;;;;;10.00;6.22;;;19.00;99.90;;;;;;5087837;28;20082;-46
2022/08/04 03:13:56;;;;;;;11.50;6.63;;;19.00;99.90;;;;;;5062132;28;20059;-47
2022/08/04 03:16:49;;;;;;;15.38;6.63;;;19.00;99.90;;;;;;5071359;28;20037;-48
2022/08/04 03:19:54;;;;;;;11.27;6.65;;;19.00;99.90;;;;;;5087651;28;20147;-48
2022/08/04 03:22:37;;;;;;;12.30;6.85;;;19.00;99.90;;;;;;5091220;28;20035;-49
2022/08/04 03:25:21;;;;;;;14.45;7.22;;;19.00;99.90;;;;;;5079511;28;20078;-48
2022/08/04 03:28:25;;;;;;;12.07;6.30;;;19.00;99.90;;;;;;5069053;28;20125;-46
2022/08/04 03:31:14;;;;;;;12.40;6.47;;;19.10;99.90;;;;;;5077133;28;20086;-49
2022/08/04 03:33:59;;;;;;;10.15;5.97;;;19.00;99.90;;;;;;5080272;28;20051;-47
2022/08/04 03:36:52;;;;;;;10.68;6.43;;;19.10;99.90;;;;;;5074750;28;20044;-48
2022/08/04 03:39:30;;;;;;;16.35;6.75;;;19.10;99.90;;;;;;5071263;28;20037;-48
2022/08/04 03:42:01;;;;;;;10.77;6.18;;;19.10;99.90;;;;;;5075995;28;20035;-48
2022/08/04 03:45:17;;;;;;;12.77;6.40;;;19.20;99.90;;;;;;5084829;28;20170;-49
2022/08/04 03:48:13;;;;;;;17.50;6.80;;;19.20;99.90;;;;;;5015544;28;20054;-49
2022/08/04 03:54:37;;;;;;;14.85;6.65;;;19.20;99.90;;;;;;4969874;28;20051;-46
2022/08/04 03:57:06;;;;;;;14.25;6.32;;;19.20;99.90;;;;;;4983255;28;20074;-49
2022/08/04 03:59:43;;;;;;;10.60;5.78;;;19.20;99.90;;;;;;4989220;28;20050;-46
2022/08/04 04:02:17;;;;;;;18.80;6.00;;;19.20;99.90;;;;;;4989032;28;20404;-48
2022/08/04 04:05:04;;;;;;;15.95;5.70;;;19.10;99.90;;;;;;4988599;28;20050;-48
2022/08/04 04:07:57;;;;;;;16.38;6.75;;;19.10;99.90;;;;;;4975099;28;20559;-47
2022/08/04 04:10:45;;;;;;;13.43;6.15;;;19.10;99.90;;;;;;4974867;28;20042;-47
2022/08/04 04:13:57;;;;;;;11.00;6.15;;;19.10;99.90;;;;;;4988046;28;20557;-48
2022/08/04 04:16:36;;;;;;;13.27;5.95;;;19.10;99.90;;;;;;4908065;29;20040;-52
2022/08/04 04:19:31;;;;;;;9.00;5.07;;;19.10;99.90;;;;;;4908181;29;20060;-45
2022/08/04 04:22:10;;;;;;;13.65;4.82;;;19.00;99.90;;;;;;4892621;29;20091;-46
2022/08/04 04:24:47;;;;;;;18.77;4.82;;;19.00;99.90;;;;;;4939490;28;20103;-46
2022/08/04 04:27:24;;;;;;;7.90;5.38;;;18.90;99.90;;;;;;4968291;28;20051;-48
2022/08/04 04:29:59;;;;;;;6.65;4.75;;;18.90;99.90;;;;;;4988082;28;20535;-48
2022/08/04 04:32:58;;;;;;;15.38;4.72;;;19.00;99.90;;;;;;4986427;28;20046;-48
2022/08/04 04:35:59;;;;;;;15.30;5.93;;;19.00;99.90;;;;;;4952824;28;20050;-48
2022/08/04 04:38:38;;;;;;;17.10;6.15;;;18.90;99.90;;;;;;4921769;29;20557;-48
2022/08/04 04:41:38;;;;;;;12.63;5.60;;;19.00;99.90;;;;;;4970067;28;20050;-47
2022/08/04 04:44:49;;;;;;;10.60;5.15;;;19.00;99.90;;;;;;4978430;28;20043;-47
2022/08/04 04:47:41;;;;;;;14.13;5.80;;;19.00;99.90;;;;;;5036313;28;20056;-47
2022/08/04 04:50:31;;;;;;;9.30;5.40;;;19.10;99.90;;;;;;5081812;28;20397;-50
2022/08/04 04:53:19;;;;;;;12.38;5.30;;;19.10;99.90;;;;;;5083652;28;20103;-46
2022/08/04 04:55:54;;;;;;;15.50;5.45;;;19.20;99.90;;;;;;5070130;28;20068;-49
2022/08/04 04:58:21;;;;;;;9.70;4.78;;;19.20;99.90;;;;;;5083582;28;20040;-47
2022/08/04 05:01:09;;;;;;;14.38;5.20;;;19.30;99.90;;;;;;5088374;28;20525;-47
2022/08/04 05:03:53;;;;;;;14.52;4.75;;;19.30;99.90;;;;;;5075278;28;20040;-46
2022/08/04 05:06:40;;;;;;;8.13;4.80;;;19.40;99.90;;;;;;5089912;28;20044;-52
2022/08/04 05:09:26;;;;;;;16.08;5.00;;;19.50;99.90;;;;;;5087070;28;20044;-47
2022/08/04 05:12:22;;;;;;;13.00;5.73;;;19.50;99.90;;;;;;5079820;28;20122;-50
2022/08/04 05:14:50;;;;;;;14.43;4.82;;;19.60;99.90;;;;;;5086958;28;20040;-48
2022/08/04 05:17:38;;;;;;;9.95;5.20;;;19.70;99.90;;;;;;5074062;28;20540;-49
2022/08/04 05:20:28;;;;;;;13.65;5.32;;;19.80;99.90;;;;;;5081574;28;20559;-48
2022/08/04 05:23:12;;;;;;;14.65;4.97;;;19.80;99.90;;;;;;5070976;28;20033;-48
2022/08/04 05:25:45;;;;;;;9.90;5.05;;;19.90;99.90;;;;;;5077771;28;20079;-49
2022/08/04 05:28:15;;;;;;;11.65;4.10;;;20.00;99.90;;;;;;5086847;28;20130;-48
2022/08/04 05:30:47;;;;;;;12.82;4.55;;;20.10;99.90;;;;;;5074801;28;20489;-46
2022/08/04 05:33:17;;;;;;;15.90;5.35;;;20.10;99.90;;;;;;5090236;28;20039;-48
2022/08/04 05:35:48;;;;;;;12.10;4.78;;;20.30;99.90;;;;;;5079140;28;20045;-48
2022/08/04 05:38:17;;;;;;;14.18;5.70;;;20.40;99.90;;;;;;5080489;28;20448;-48
2022/08/04 05:40:43;;;;;;;13.55;4.05;;;20.40;99.90;;;;;;5078146;28;20041;-48
2022/08/04 05:43:11;;;;;;;11.60;4.28;;;20.50;99.90;;;;;;5075613;28;20036;-47
2022/08/04 05:45:37;;;;;;;17.73;4.97;;;20.60;99.90;;;;;;5083408;28;20037;-50
2022/08/04 05:48:05;;;;;;;;;;;20.70;99.90;;;;;;5073746;28;20093;-48
2022/08/04 05:50:32;;;;;;;9.77;4.47;;;20.70;99.90;;;;;;5083072;28;19916;-50
2022/08/04 05:52:59;;;;;;;16.13;5.07;;;20.80;99.90;;;;;;5054773;28;20068;-47
2022/08/04 05:55:27;;;;;;;13.43;4.35;;;20.90;99.90;;;;;;5086457;28;20089;-48
2022/08/04 05:57:53;;;;;;;13.95;4.93;;;21.00;99.90;;;;;;5093289;28;20040;-48
2022/08/04 06:00:18;;;;;;;;;;;21.10;99.90;;;;;;5093885;28;20043;-48
2022/08/04 06:02:46;;;;;;;19.60;4.88;;;21.20;99.90;;;;;;5089567;28;20296;-47
2022/08/04 06:05:14;;;;;;;13.52;4.43;;;21.30;99.90;;;;;;5092473;28;20520;-50
2022/08/04 06:07:40;;;;;;;8.27;4.03;;;21.50;99.90;;;;;;5072715;28;20056;-48
2022/08/04 06:10:07;;;;;;;11.68;4.65;;;21.60;99.90;;;;;;5072294;28;20505;-47
2022/08/04 06:12:59;;;;;;;16.08;4.82;;;21.70;99.90;;;;;;5073830;28;20378;-46
2022/08/04 06:15:26;;;;;;;10.60;4.45;;;21.80;99.90;;;;;;5074518;28;20047;-46
2022/08/04 06:17:55;;;;;;;11.77;5.00;;;21.90;99.90;;;;;;5081308;28;20075;-48
2022/08/04 06:20:25;;;;;;;13.25;5.13;;;21.90;99.90;;;;;;5091121;28;20036;-48
2022/08/04 06:23:01;;;;;;;8.52;4.80;;;22.00;99.90;;;;;;5079725;28;20044;-47
2022/08/04 06:25:38;;;;;;;11.63;4.10;;;22.00;99.90;;;;;;5077459;28;20036;-48
2022/08/04 06:28:08;;;;;;;9.25;4.85;;;22.10;99.90;;;;;;5087878;28;20293;-50
2022/08/04 06:30:35;;;;;;;9.82;4.25;;;22.10;99.90;;;;;;5081574;28;20074;-47
2022/08/04 06:33:12;;;;;;;9.18;4.68;;;22.20;99.90;;;;;;5085878;28;20047;-47
2022/08/04 06:35:39;;;;;;;14.80;4.72;;;22.20;99.90;;;;;;5090671;28;20489;-46
2022/08/04 06:38:07;;;;;;;10.82;5.97;;;22.30;99.90;;;;;;5078073;28;20040;-52
2022/08/04 06:40:34;;;;;;;15.27;5.53;;;22.30;99.90;;;;;;5073271;28;20115;-50
2022/08/04 06:43:02;;;;;;;9.82;5.95;;;22.40;99.90;;;;;;5072210;28;20036;-49
2022/08/04 06:45:28;;;;;;;12.75;6.35;;;22.40;99.90;;;;;;5089972;28;20561;-49
2022/08/04 06:47:54;;;;;;;11.15;5.70;;;22.50;99.90;;;;;;5092266;28;20114;-47
2022/08/04 06:50:21;;;;;;;11.18;5.88;;;22.60;99.90;;;;;;5078324;28;20037;-49
2022/08/04 06:52:46;;;;;;;9.20;5.93;;;22.70;99.90;;;;;;5073267;28;20028;-50
2022/08/04 06:55:12;;;;;;;;;;;22.80;99.90;;;;;;5079382;28;20066;-47
2022/08/04 06:57:40;;;;;;;8.77;5.75;;;22.90;99.90;;;;;;5084958;28;19920;-48
2022/08/04 07:00:10;;;;;;;11.18;4.82;;;22.90;99.90;;;;;;5091905;28;20094;-49
2022/08/04 07:02:46;;;;;;;10.00;5.60;;;23.00;99.90;;;;;;5062982;28;20048;-48
2022/08/04 07:05:13;;;;;;;10.02;5.65;;;23.10;99.90;;;;;;5077620;28;20040;-49
2022/08/04 07:07:40;;;;;;;15.93;6.30;;;23.20;99.90;;;;;;5076687;28;20035;-48
2022/08/04 07:10:07;;;;;;;15.20;5.20;;;23.30;99.90;;;;;;5090534;28;20036;-50
2022/08/04 07:12:33;;;;;;;11.18;6.50;;;23.30;99.90;;;;;;5091465;28;20066;-48
2022/08/04 07:14:59;;;;;;;14.93;5.28;;;23.40;99.90;;;;;;5091489;28;20048;-49
2022/08/04 07:17:25;;;;;;;11.88;6.60;;;23.40;99.90;;;;;;5091931;28;20506;-48
2022/08/04 07:19:51;;;;;;;10.10;6.22;;;23.50;99.90;;;;;;5081607;28;20064;-48
2022/08/04 07:22:18;;;;;;;11.77;5.63;;;23.60;99.90;;;;;;5080693;28;20040;-49
2022/08/04 07:24:44;;;;;;;15.95;7.00;;;23.60;99.90;;;;;;5073849;28;20486;-48
2022/08/04 07:27:10;;;;;;;12.07;6.35;;;23.60;99.90;;;;;;5070890;28;20387;-48
2022/08/04 07:29:37;;;;;;;9.20;5.20;;;23.60;99.90;;;;;;5081926;28;20048;-48
2022/08/04 07:32:03;;;;;;;14.40;6.38;;;23.70;99.90;;;;;;5085388;28;20052;-48
2022/08/04 07:34:30;;;;;;;12.55;5.97;;;23.70;99.90;;;;;;5090116;28;20051;-50
2022/08/04 07:36:58;;;;;;;10.45;6.28;;;23.80;99.90;;;;;;5090768;28;20625;-48
2022/08/04 07:39:30;;;;;;;13.38;7.00;;;23.90;99.90;;;;;;5091613;28;20451;-46
2022/08/04 07:41:57;;;;;;;14.73;6.57;;;23.90;99.90;;;;;;5081122;28;20037;-48
2022/08/04 07:44:24;;;;;;;17.45;6.68;;;24.00;99.90;;;;;;5057632;28;20528;-49
2022/08/04 07:46:49;;;;;;;13.07;6.95;;;24.10;99.90;;;;;;5078010;28;20532;-49
2022/08/04 07:49:15;;;;;;;8.82;7.00;;;24.20;99.90;;;;;;5071331;28;20048;-48
2022/08/04 07:51:41;;;;;;;21.33;7.03;;;24.20;99.90;;;;;;5080210;28;20040;-49
2022/08/04 07:54:09;;;;;;;12.15;5.65;;;24.20;99.90;;;;;;5095037;28;20062;-46
2022/08/04 07:56:36;;;;;;;18.80;7.03;;;24.30;99.90;;;;;;5095224;28;20067;-48
2022/08/04 07:59:03;;;;;;;13.93;6.10;;;24.40;99.90;;;;;;5088693;28;20074;-48
2022/08/04 08:01:29;;;;;;;15.88;7.15;;;24.40;99.90;;;;;;5082416;28;20032;-49
2022/08/04 08:03:57;;;;;;;12.30;6.55;;;24.40;99.90;;;;;;5087609;28;20032;-48
2022/08/04 08:06:24;;;;;;;13.60;6.47;;;24.50;99.90;;;;;;5079036;28;20052;-48
2022/08/04 08:08:50;;;;;;;15.68;6.07;;;24.60;99.90;;;;;;5087308;28;20040;-49
2022/08/04 08:11:16;;;;;;;9.15;5.25;;;24.60;99.90;;;;;;5072553;28;20573;-48
2022/08/04 08:13:45;;;;;;;13.48;5.50;;;24.70;99.90;;;;;;5079202;28;20046;-49
2022/08/04 08:16:11;;;;;;;15.90;8.85;;;24.70;99.90;;;;;;5083333;28;20059;-47
2022/08/04 08:18:37;;;;;;;10.35;6.53;;;24.70;99.90;;;;;;5081023;28;20033;-50
2022/08/04 08:21:03;;;;;;;8.57;5.55;;;24.70;99.90;;;;;;5073138;28;20405;-48
2022/08/04 08:23:31;;;;;;;6.43;4.30;;;24.70;99.90;;;;;;5082365;28;20040;-47
2022/08/04 08:25:58;;;;;;;15.23;7.13;;;24.80;99.90;;;;;;5081727;28;20593;-47
2022/08/04 08:28:24;;;;;;;11.38;5.20;;;24.80;99.90;;;;;;5071223;28;20036;-48
2022/08/04 08:30:50;;;;;;;10.23;4.88;;;24.80;99.90;;;;;;5075623;28;20042;-48
2022/08/04 08:33:16;;;;;;;10.02;6.00;;;24.90;99.90;;;;;;5082015;28;20428;-49
2022/08/04 08:35:47;;;;;;;8.55;3.28;;;24.90;99.90;;;;;;5072345;28;20028;-49
2022/08/04 08:38:16;;;;;;;10.95;4.00;;;25.00;99.90;;;;;;5086235;28;20037;-48
2022/08/04 08:41:27;;;;;;;9.98;3.25;;;25.20;99.90;;;;;;5075289;28;20031;-48
2022/08/04 08:44:27;;;;;;;10.32;3.00;;;25.30;99.90;;;;;;5069886;28;20097;-50
2022/08/04 08:47:12;;;;;;;8.57;2.83;;;25.50;99.90;;;;;;5076350;28;20036;-52
2022/08/04 08:49:55;;;;;;;7.80;2.78;;;25.60;99.90;;;;;;5070988;28;20115;-51
2022/08/04 08:52:50;;;;;;;7.00;3.00;;;25.80;99.90;;;;;;5071505;28;20405;-50
2022/08/04 08:55:38;;;;;;;14.93;3.25;;;25.90;99.90;;;;;;5070994;28;20055;-47
2022/08/04 08:58:15;;;;;;;8.65;3.00;;;26.10;99.90;;;;;;5079936;28;20168;-47
2022/08/04 09:00:52;;;;;;;6.65;2.47;;;26.20;99.90;;;;;;5088247;28;20043;-49
2022/08/04 09:03:36;;;;;;;11.32;2.75;;;26.40;99.90;;;;;;5091291;28;20044;-48
2022/08/04 09:06:44;;;;;;;4.45;2.78;;;26.50;99.70;;;;;;5086861;28;20420;-48
2022/08/04 09:09:09;;;;;;;10.90;3.00;;;26.60;99.10;;;;;;5092752;28;20123;-46
2022/08/04 09:11:54;;;;;;;12.05;2.80;;;26.70;98.70;;;;;;5093033;28;20453;-49
2022/08/04 09:14:29;;;;;;;11.57;2.15;;;26.80;98.60;;;;;;5089664;28;20374;-49
2022/08/04 09:17:06;;;;;;;15.63;3.90;;;27.00;98.70;;;;;;5087159;28;20047;-48
2022/08/04 09:19:44;;;;;;;16.15;3.83;;;27.10;98.30;;;;;;5093686;28;20032;-47
2022/08/04 09:22:34;;;;;;;9.68;2.80;;;27.20;98.20;;;;;;5091591;28;20427;-46
2022/08/04 09:25:24;;;;;;;8.20;2.58;;;27.30;97.70;;;;;;5074824;28;20056;-47
2022/08/04 09:28:03;;;;;;;6.82;3.08;;;27.40;97.50;;;;;;5091869;28;20471;-48
2022/08/04 09:31:05;;;;;;;10.40;2.85;;;27.50;96.90;;;;;;5094084;28;20131;-45
2022/08/04 09:33:42;;;;;;;11.27;2.25;;;27.60;97.50;;;;;;5035523;28;20056;-48
2022/08/04 09:36:29;;;;;;;10.45;2.70;;;27.70;97.40;;;;;;5073910;28;20121;-45
2022/08/04 09:39:20;;;;;;;10.95;2.58;;;27.70;96.50;;;;;;5073413;28;20083;-48
2022/08/04 09:41:57;;;;;;;11.43;3.15;;;27.80;97.60;;;;;;5090065;28;20035;-48
2022/08/04 09:44:27;;;;;;;11.25;2.53;;;27.90;96.80;;;;;;5092387;28;20036;-50
2022/08/04 09:47:17;;;;;;;7.30;2.30;;;28.10;96.90;;;;;;5083976;28;20044;-48
2022/08/04 09:49:46;;;;;;;14.82;2.75;;;28.10;96.20;;;;;;5079926;28;20094;-48
2022/08/04 09:52:43;;;;;;;6.47;2.10;;;28.20;96.20;;;;;;5092722;28;20048;-49
2022/08/04 09:55:45;;;;;;;8.00;1.92;;;28.20;95.70;;;;;;5087926;28;20400;-48
2022/08/04 09:58:35;;;;;;;25.05;3.85;;;28.30;95.80;;;;;;5091440;28;20509;-48
2022/08/04 10:01:12;;;;;;;21.27;3.28;;;28.30;96.60;;;;;;5080006;28;20047;-47
2022/08/04 10:03:43;;;;;;;14.00;3.40;;;28.40;96.00;;;;;;5055609;28;20532;-46
2022/08/04 10:06:32;;;;;;;5.95;1.98;;;28.50;95.90;;;;;;5080745;28;20044;-48
2022/08/04 10:09:42;;;;;;;10.88;2.58;;;28.50;95.30;;;;;;5081657;28;20044;-47
2022/08/04 10:12:26;;;;;;;7.85;3.03;;;28.40;95.30;;;;;;5089090;28;20497;-47
2022/08/04 10:14:56;;;;;;;7.28;2.13;;;28.40;95.70;;;;;;5083674;28;20040;-46
2022/08/04 10:17:22;;;;;;;7.55;2.20;;;28.50;95.90;;;;;;5091944;28;20558;-47
2022/08/04 10:20:00;;;;;;;7.97;2.22;;;28.60;95.90;;;;;;5086282;28;20044;-48
2022/08/04 10:22:35;;;;;;;8.07;2.08;;;28.70;95.40;;;;;;5081027;28;20115;-47
2022/08/04 10:25:25;;;;;;;9.18;2.75;;;28.80;95.20;;;;;;5088719;28;20099;-49
2022/08/04 10:27:56;;;;;;;10.23;2.40;;;28.90;95.10;;;;;;5077517;28;20170;-49
2022/08/04 10:30:23;;;;;;;7.25;2.78;;;29.00;95.00;;;;;;5058842;28;20047;-49
2022/08/04 10:32:52;;;;;;;11.43;2.75;;;29.10;94.90;;;;;;5079351;28;20167;-48
2022/08/04 10:35:23;;;;;;;6.20;3.22;;;29.00;94.50;;;;;;5073198;28;20101;-50
2022/08/04 10:38:07;;;;;;;13.80;4.57;;;29.00;94.60;;;;;;5078815;28;20429;-49
2022/08/04 10:40:41;;;;;;;12.85;3.60;;;28.90;94.50;;;;;;5082495;28;20044;-49
2022/08/04 10:43:32;;;;;;;11.55;4.07;;;29.00;95.10;;;;;;5079792;28;20047;-47
2022/08/04 10:46:04;;;;;;;22.83;5.25;;;29.10;95.50;;;;;;5080866;28;20050;-49
2022/08/04 10:49:08;;;;;;;7.90;2.80;;;29.20;96.00;;;;;;5079990;28;20479;-52
2022/08/04 10:51:37;;;;;;;13.00;3.42;;;29.50;95.00;;;;;;5082875;28;20397;-46
2022/08/04 10:54:09;;;;;;;6.93;3.38;;;29.60;94.60;;;;;;5081876;28;20490;-49
2022/08/04 10:56:40;;;;;;;12.98;4.00;;;29.70;94.90;;;;;;5082118;28;20482;-50
2022/08/04 10:59:18;;;;;;;6.50;3.70;;;29.70;94.90;;;;;;5063228;28;20041;-47
2022/08/04 11:01:49;;;;;;;11.90;4.38;;;29.80;95.30;;;;;;5080601;28;20572;-48
2022/08/04 11:04:40;;;;;;;9.70;3.35;;;29.80;95.10;;;;;;5082282;28;20040;-49
2022/08/04 11:07:07;;;;;;;6.82;3.63;;;29.80;95.10;;;;;;5084573;28;20109;-49
2022/08/04 11:09:34;;;;;;;8.45;3.42;;;29.90;95.30;;;;;;5072363;28;20040;-48
2022/08/04 11:12:14;;;;;;;12.05;3.60;;;29.90;95.00;;;;;;5073886;28;20090;-49
2022/08/04 11:14:58;;;;;;;8.80;3.42;;;29.90;94.50;;;;;;5079659;28;20040;-47
2022/08/04 11:17:52;;;;;;;7.45;3.10;;;30.00;94.50;;;;;;5092130;28;20122;-47
2022/08/04 11:20:29;;;;;;;8.85;3.47;;;29.90;94.00;;;;;;5083937;28;20047;-49
2022/08/04 11:23:10;;;;;;;16.23;3.55;;;29.80;94.00;;;;;;5082881;28;20493;-47
2022/08/04 11:25:54;;;;;;;10.10;2.83;;;29.70;93.90;;;;;;5077675;28;20489;-47
2022/08/04 11:28:23;;;;;;;8.27;1.98;;;29.50;93.20;;;;;;5091314;28;20109;-47
2022/08/04 11:31:06;;;;;;;6.68;1.40;;;29.40;93.10;;;;;;5087672;28;20096;-48
2022/08/04 11:33:48;;;;;;;8.27;1.70;;;29.20;93.60;;;;;;5071069;28;20090;-47
2022/08/04 11:36:33;;;;;;;6.57;1.52;;;29.10;93.90;;;;;;5060195;28;20082;-47
2022/08/04 11:39:10;;;;;;;2.85;1.35;;;29.10;93.50;;;;;;5089759;28;20485;-49
2022/08/04 11:41:51;;;;;;;4.25;1.25;;;29.10;93.00;;;;;;5073569;28;20401;-47
2022/08/04 11:44:33;;;;;;;16.50;1.90;;;29.00;93.50;;;;;;5076684;28;20198;-47
2022/08/04 11:47:07;;;;;;;4.90;1.52;;;28.90;93.10;;;;;;5090496;28;20519;-49
2022/08/04 11:49:42;;;;;;;6.45;1.27;;;28.80;92.90;;;;;;5072550;28;20040;-50
2022/08/04 11:52:11;;;;;;;6.57;1.23;;;28.60;93.20;;;;;;5062400;28;20048;-49
2022/08/04 11:54:38;;;;;;;7.93;1.10;;;28.40;93.50;;;;;;5086697;28;20082;-47
2022/08/04 11:57:04;;;;;;;9.73;1.60;;;28.30;93.60;;;;;;5090831;28;20071;-49
2022/08/04 11:59:34;;;;;;;7.90;1.25;;;28.10;93.60;;;;;;5088693;28;20482;-49
2022/08/04 12:02:30;;;;;;;5.82;1.23;;;28.00;94.00;;;;;;5070413;28;20423;-45
2022/08/04 12:05:00;;;;;;;11.90;1.03;;;27.80;94.10;;;;;;5077157;28;20417;-51
2022/08/04 12:07:58;;;;;;;5.75;1.27;;;27.70;94.30;;;;;;5078801;28;20282;-48
2022/08/04 12:10:52;;;;;;;4.15;1.13;;;27.60;94.20;;;;;;5084247;28;20040;-49
2022/08/04 12:13:35;;;;;;;5.65;1.20;;;27.50;94.40;;;;;;5079490;28;20047;-48
2022/08/04 12:16:16;;;;;;;8.68;0.95;;;27.40;94.50;;;;;;5081040;28;21424;-48
2022/08/04 12:18:52;;;;;;;5.20;0.80;;;27.30;94.80;;;;;;5074072;28;20589;-47
2022/08/04 12:21:23;;;;;;;8.00;1.70;;;27.20;95.00;;;;;;5072413;28;20038;-49
2022/08/04 12:23:51;;;;;;;9.13;1.23;;;27.10;94.90;;;;;;5070095;28;20116;-48
2022/08/04 12:26:27;;;;;;;10.07;1.30;;;27.00;95.00;;;;;;5069704;28;20047;-49
2022/08/04 12:28:58;;;;;;;9.18;1.65;;;26.90;95.20;;;;;;5072645;28;20067;-48
2022/08/04 12:31:47;;;;;;;7.57;2.15;;;26.80;95.40;;;;;;5086069;28;20051;-48
2022/08/04 12:34:37;;;;;;;6.03;1.13;;;26.70;95.30;;;;;;5070854;28;20051;-47
2022/08/04 12:37:26;;;;;;;4.28;0.75;;;26.50;95.30;;;;;;5072209;28;20075;-46
2022/08/04 12:39:53;;;;;;;3.38;0.93;;;26.40;95.40;;;;;;5089636;28;20051;-47
2022/08/04 12:42:41;;;;;;;5.40;0.90;;;26.30;95.60;;;;;;5090491;28;20409;-48
2022/08/04 12:45:09;;;;;;;6.20;0.80;;;26.20;95.90;;;;;;5070872;28;20041;-46
2022/08/04 12:47:36;;;;;;;10.32;1.40;;;26.10;96.10;;;;;;5075281;28;20040;-48
2022/08/04 12:50:03;;;;;;;8.05;1.50;;;26.10;96.70;;;;;;5075574;28;20128;-47
2022/08/04 12:52:40;;;;;;;8.70;0.95;;;26.00;97.40;;;;;;5070017;28;20048;-46
2022/08/04 12:55:07;;;;;;;9.63;1.42;;;26.00;98.20;;;;;;5085881;28;20040;-48
2022/08/04 12:57:34;;;;;;;7.53;1.10;;;25.90;98.70;;;;;;5090311;28;20470;-47
2022/08/04 13:00:00;;;;;;;3.28;1.40;;;25.80;99.40;;;;;;5073757;28;20036;-47
2022/08/04 13:02:32;;;;;;;4.53;1.05;;;25.80;99.90;;;;;;5069900;28;20046;-49
2022/08/04 13:05:01;;;;;;;5.80;1.05;;;25.70;99.90;;;;;;5070918;28;20033;-46
2022/08/04 13:07:34;;;;;;;9.50;1.50;;;25.70;99.90;;;;;;5069882;28;20048;-48
2022/08/04 13:10:04;;;;;;;3.10;1.08;;;25.70;99.90;;;;;;5082363;28;20037;-50
2022/08/04 13:12:31;;;;;;;4.00;1.02;;;25.70;99.90;;;;;;5089871;28;20081;-46
2022/08/04 13:15:07;;;;;;;3.00;1.05;;;25.60;99.90;;;;;;5084999;28;20036;-48
2022/08/04 13:17:55;;;;;;;4.18;0.93;;;25.60;99.90;;;;;;5076569;28;20047;-48
2022/08/04 13:20:47;;;;;;;2.25;0.60;;;25.70;99.90;;;;;;5077638;28;20093;-47
2022/08/04 13:23:14;;;;;;;4.00;0.88;;;25.70;99.90;;;;;;5070735;28;20076;-48
2022/08/04 13:25:43;;;;;;;1.73;0.50;;;25.70;99.90;;;;;;5088285;28;20047;-45
2022/08/04 13:28:17;;;;;;;1.80;0.70;;;25.80;99.90;;;;;;5089168;28;20036;-48
2022/08/04 13:30:45;;;;;;;3.88;0.65;;;25.80;99.90;;;;;;5069912;28;20036;-47
2022/08/04 13:33:11;;;;;;;3.65;0.63;;;25.80;99.90;;;;;;5057529;28;20055;-48